Terminal Aerodrome Forecast
Issued by NWS St Louis, MO

Home | Current Version | Previous Version | Text Only | Print | Product List | Glossary On
Versions: 1 2 3 4 5 6 7 8 9 10 11 12 13 14 15 16 17 18 19 20
000
FTUS43 KLSX 270800 AAA
TAFCOU
TAF AMD
KCOU 270815Z 2708/2806 34007KT P6SM SCT025
      TEMPO 2710/2713 BKN025
     FM272000 VRB04KT P6SM SKC
     FM280100 11007KT P6SM SKC=

USA.gov is the U.S. government's official web portal to all federal, state and local government web resources and services.